sensor_id;sensor_type;location;lat;lon;timestamp;P1;durP1;ratioP1;P2;durP2;ratioP2
14789;SDS011;7486;51.010;10.366;2023-03-31T00:02:05;4.90;;;1.80;;
14789;SDS011;7486;51.010;10.366;2023-03-31T00:04:50;4.93;;;1.47;;
14789;SDS011;7486;51.010;10.366;2023-03-31T00:07:35;5.32;;;1.60;;
14789;SDS011;7486;51.010;10.366;2023-03-31T00:10:21;3.10;;;1.40;;
14789;SDS011;7486;51.010;10.366;2023-03-31T00:13:06;6.90;;;1.50;;
14789;SDS011;7486;51.010;10.366;2023-03-31T00:15:55;3.33;;;1.30;;
14789;SDS011;7486;51.010;10.366;2023-03-31T00:18:41;4.33;;;1.30;;
14789;SDS011;7486;51.010;10.366;2023-03-31T00:21:26;2.13;;;1.40;;
14789;SDS011;7486;51.010;10.366;2023-03-31T00:24:13;4.73;;;1.63;;
14789;SDS011;7486;51.010;10.366;2023-03-31T00:27:03;5.50;;;1.50;;
14789;SDS011;7486;51.010;10.366;2023-03-31T00:29:49;3.13;;;1.20;;
14789;SDS011;7486;51.010;10.366;2023-03-31T00:32:35;4.63;;;1.30;;
14789;SDS011;7486;51.010;10.366;2023-03-31T00:35:20;4.60;;;1.50;;
14789;SDS011;7486;51.010;10.366;2023-03-31T00:38:06;3.88;;;1.20;;
14789;SDS011;7486;51.010;10.366;2023-03-31T00:40:51;3.87;;;1.30;;
14789;SDS011;7486;51.010;10.366;2023-03-31T00:43:37;5.10;;;1.53;;
14789;SDS011;7486;51.010;10.366;2023-03-31T00:46:26;4.27;;;1.30;;
14789;SDS011;7486;51.010;10.366;2023-03-31T00:52:14;3.93;;;1.27;;
14789;SDS011;7486;51.010;10.366;2023-03-31T00:55:04;4.87;;;1.20;;
14789;SDS011;7486;51.010;10.366;2023-03-31T00:57:54;4.20;;;1.10;;
14789;SDS011;7486;51.010;10.366;2023-03-31T01:00:40;3.73;;;1.33;;
14789;SDS011;7486;51.010;10.366;2023-03-31T01:03:26;4.67;;;1.23;;
14789;SDS011;7486;51.010;10.366;2023-03-31T01:06:13;5.07;;;1.23;;
14789;SDS011;7486;51.010;10.366;2023-03-31T01:09:02;4.10;;;1.03;;
14789;SDS011;7486;51.010;10.366;2023-03-31T01:11:47;4.03;;;1.43;;
14789;SDS011;7486;51.010;10.366;2023-03-31T01:14:33;4.60;;;1.40;;
14789;SDS011;7486;51.010;10.366;2023-03-31T01:17:20;2.70;;;1.20;;
14789;SDS011;7486;51.010;10.366;2023-03-31T01:35:48;4.33;;;1.07;;
14789;SDS011;7486;51.010;10.366;2023-03-31T01:39:40;4.10;;;1.00;;
14789;SDS011;7486;51.010;10.366;2023-03-31T01:42:03;2.83;;;0.90;;
14789;SDS011;7486;51.010;10.366;2023-03-31T01:47:58;3.60;;;1.03;;
14789;SDS011;7486;51.010;10.366;2023-03-31T01:50:58;4.53;;;1.10;;
14789;SDS011;7486;51.010;10.366;2023-03-31T02:00:27;2.00;;;1.10;;
14789;SDS011;7486;51.010;10.366;2023-03-31T02:03:17;2.20;;;1.00;;
14789;SDS011;7486;51.010;10.366;2023-03-31T02:06:10;2.10;;;0.90;;
14789;SDS011;7486;51.010;10.366;2023-03-31T02:09:01;3.57;;;1.07;;
14789;SDS011;7486;51.010;10.366;2023-03-31T02:11:50;6.03;;;1.07;;
14789;SDS011;7486;51.010;10.366;2023-03-31T02:14:38;2.72;;;1.00;;
14789;SDS011;7486;51.010;10.366;2023-03-31T02:17:27;3.13;;;1.17;;
14789;SDS011;7486;51.010;10.366;2023-03-31T02:20:13;3.17;;;0.90;;
14789;SDS011;7486;51.010;10.366;2023-03-31T02:23:04;2.37;;;0.97;;
14789;SDS011;7486;51.010;10.366;2023-03-31T02:25:50;3.50;;;1.00;;
14789;SDS011;7486;51.010;10.366;2023-03-31T02:28:38;4.07;;;1.20;;
14789;SDS011;7486;51.010;10.366;2023-03-31T02:34:15;3.65;;;1.10;;
14789;SDS011;7486;51.010;10.366;2023-03-31T02:37:01;2.17;;;0.90;;
14789;SDS011;7486;51.010;10.366;2023-03-31T02:39:47;2.03;;;0.85;;
14789;SDS011;7486;51.010;10.366;2023-03-31T02:42:37;2.93;;;1.20;;
14789;SDS011;7486;51.010;10.366;2023-03-31T02:48:43;3.27;;;1.00;;
14789;SDS011;7486;51.010;10.366;2023-03-31T02:51:38;3.23;;;1.10;;
14789;SDS011;7486;51.010;10.366;2023-03-31T02:54:55;2.30;;;0.90;;
14789;SDS011;7486;51.010;10.366;2023-03-31T02:58:03;3.17;;;1.00;;
14789;SDS011;7486;51.010;10.366;2023-03-31T03:04:41;3.03;;;1.20;;
14789;SDS011;7486;51.010;10.366;2023-03-31T03:10:07;4.07;;;1.10;;
14789;SDS011;7486;51.010;10.366;2023-03-31T03:16:18;2.47;;;1.20;;
14789;SDS011;7486;51.010;10.366;2023-03-31T03:19:16;3.23;;;1.30;;
14789;SDS011;7486;51.010;10.366;2023-03-31T03:22:06;5.13;;;1.20;;
14789;SDS011;7486;51.010;10.366;2023-03-31T03:24:53;3.67;;;1.30;;
14789;SDS011;7486;51.010;10.366;2023-03-31T03:27:39;4.40;;;1.00;;
14789;SDS011;7486;51.010;10.366;2023-03-31T03:30:25;4.43;;;1.27;;
14789;SDS011;7486;51.010;10.366;2023-03-31T03:33:10;3.97;;;1.23;;
14789;SDS011;7486;51.010;10.366;2023-03-31T03:35:58;3.27;;;1.10;;
14789;SDS011;7486;51.010;10.366;2023-03-31T03:38:43;2.40;;;1.13;;
14789;SDS011;7486;51.010;10.366;2023-03-31T03:41:29;2.90;;;1.00;;
14789;SDS011;7486;51.010;10.366;2023-03-31T03:44:14;3.23;;;1.13;;
14789;SDS011;7486;51.010;10.366;2023-03-31T03:47:00;4.57;;;1.30;;
14789;SDS011;7486;51.010;10.366;2023-03-31T03:49:45;3.13;;;1.20;;
14789;SDS011;7486;51.010;10.366;2023-03-31T03:52:31;2.87;;;1.10;;
14789;SDS011;7486;51.010;10.366;2023-03-31T03:55:16;2.70;;;1.17;;
14789;SDS011;7486;51.010;10.366;2023-03-31T03:58:02;2.73;;;1.13;;
14789;SDS011;7486;51.010;10.366;2023-03-31T04:00:47;4.00;;;1.40;;
14789;SDS011;7486;51.010;10.366;2023-03-31T04:03:32;3.27;;;1.17;;
14789;SDS011;7486;51.010;10.366;2023-03-31T04:06:18;3.03;;;1.00;;
14789;SDS011;7486;51.010;10.366;2023-03-31T04:09:03;4.53;;;1.30;;
14789;SDS011;7486;51.010;10.366;2023-03-31T04:11:48;1.63;;;0.80;;
14789;SDS011;7486;51.010;10.366;2023-03-31T04:14:34;3.17;;;1.10;;
14789;SDS011;7486;51.010;10.366;2023-03-31T04:17:19;4.17;;;1.17;;
14789;SDS011;7486;51.010;10.366;2023-03-31T04:20:06;4.03;;;1.25;;
14789;SDS011;7486;51.010;10.366;2023-03-31T04:22:52;3.40;;;1.10;;
14789;SDS011;7486;51.010;10.366;2023-03-31T04:25:38;1.90;;;0.90;;
14789;SDS011;7486;51.010;10.366;2023-03-31T04:28:23;2.22;;;0.88;;
14789;SDS011;7486;51.010;10.366;2023-03-31T04:31:08;3.13;;;1.13;;
14789;SDS011;7486;51.010;10.366;2023-03-31T04:33:54;2.93;;;1.00;;
14789;SDS011;7486;51.010;10.366;2023-03-31T04:36:41;3.67;;;1.20;;
14789;SDS011;7486;51.010;10.366;2023-03-31T04:39:28;2.10;;;1.00;;
14789;SDS011;7486;51.010;10.366;2023-03-31T04:42:14;3.00;;;1.00;;
14789;SDS011;7486;51.010;10.366;2023-03-31T04:45:00;4.27;;;1.43;;
14789;SDS011;7486;51.010;10.366;2023-03-31T04:47:46;5.53;;;1.10;;
14789;SDS011;7486;51.010;10.366;2023-03-31T04:50:31;2.72;;;1.10;;
14789;SDS011;7486;51.010;10.366;2023-03-31T04:53:16;3.93;;;1.30;;
14789;SDS011;7486;51.010;10.366;2023-03-31T04:56:02;2.85;;;1.25;;
14789;SDS011;7486;51.010;10.366;2023-03-31T04:58:47;3.40;;;1.47;;
14789;SDS011;7486;51.010;10.366;2023-03-31T05:01:33;4.67;;;1.50;;
14789;SDS011;7486;51.010;10.366;2023-03-31T05:04:18;3.50;;;1.43;;
14789;SDS011;7486;51.010;10.366;2023-03-31T05:07:03;3.73;;;1.20;;
14789;SDS011;7486;51.010;10.366;2023-03-31T05:09:49;2.80;;;1.30;;
14789;SDS011;7486;51.010;10.366;2023-03-31T05:12:37;3.13;;;1.27;;
14789;SDS011;7486;51.010;10.366;2023-03-31T05:15:23;3.53;;;1.20;;
14789;SDS011;7486;51.010;10.366;2023-03-31T05:18:09;4.87;;;1.40;;
14789;SDS011;7486;51.010;10.366;2023-03-31T05:20:55;3.40;;;1.40;;
14789;SDS011;7486;51.010;10.366;2023-03-31T05:23:40;4.00;;;1.37;;
14789;SDS011;7486;51.010;10.366;2023-03-31T05:26:25;5.03;;;1.53;;
14789;SDS011;7486;51.010;10.366;2023-03-31T05:29:11;4.13;;;1.40;;
14789;SDS011;7486;51.010;10.366;2023-03-31T05:31:56;4.07;;;1.27;;
14789;SDS011;7486;51.010;10.366;2023-03-31T05:34:42;5.00;;;1.40;;
14789;SDS011;7486;51.010;10.366;2023-03-31T05:37:27;4.53;;;1.50;;
14789;SDS011;7486;51.010;10.366;2023-03-31T05:40:12;3.43;;;1.50;;
14789;SDS011;7486;51.010;10.366;2023-03-31T05:42:58;4.95;;;1.60;;
14789;SDS011;7486;51.010;10.366;2023-03-31T05:45:43;4.20;;;1.53;;
14789;SDS011;7486;51.010;10.366;2023-03-31T05:48:29;6.67;;;1.80;;
14789;SDS011;7486;51.010;10.366;2023-03-31T05:51:14;4.73;;;1.73;;
14789;SDS011;7486;51.010;10.366;2023-03-31T05:54:00;7.50;;;1.73;;
14789;SDS011;7486;51.010;10.366;2023-03-31T05:56:45;4.33;;;1.70;;
14789;SDS011;7486;51.010;10.366;2023-03-31T05:59:30;6.20;;;2.17;;
14789;SDS011;7486;51.010;10.366;2023-03-31T06:02:16;6.73;;;2.10;;
14789;SDS011;7486;51.010;10.366;2023-03-31T06:05:02;5.90;;;1.97;;
14789;SDS011;7486;51.010;10.366;2023-03-31T06:07:50;6.03;;;2.00;;
14789;SDS011;7486;51.010;10.366;2023-03-31T06:10:36;6.43;;;1.92;;
14789;SDS011;7486;51.010;10.366;2023-03-31T06:13:22;3.67;;;1.40;;
14789;SDS011;7486;51.010;10.366;2023-03-31T06:16:08;5.53;;;1.90;;
14789;SDS011;7486;51.010;10.366;2023-03-31T06:18:56;6.22;;;1.67;;
14789;SDS011;7486;51.010;10.366;2023-03-31T06:21:41;4.23;;;1.90;;
14789;SDS011;7486;51.010;10.366;2023-03-31T06:24:27;3.77;;;1.67;;
14789;SDS011;7486;51.010;10.366;2023-03-31T06:27:12;5.20;;;1.90;;
14789;SDS011;7486;51.010;10.366;2023-03-31T06:29:57;4.70;;;1.77;;
14789;SDS011;7486;51.010;10.366;2023-03-31T06:32:42;3.57;;;1.47;;
14789;SDS011;7486;51.010;10.366;2023-03-31T06:35:29;4.40;;;1.67;;
14789;SDS011;7486;51.010;10.366;2023-03-31T06:38:14;4.17;;;1.67;;
14789;SDS011;7486;51.010;10.366;2023-03-31T06:41:00;5.33;;;1.80;;
14789;SDS011;7486;51.010;10.366;2023-03-31T06:43:46;3.20;;;1.40;;
14789;SDS011;7486;51.010;10.366;2023-03-31T06:46:31;4.00;;;1.50;;
14789;SDS011;7486;51.010;10.366;2023-03-31T06:49:17;5.07;;;1.50;;
14789;SDS011;7486;51.010;10.366;2023-03-31T06:52:03;2.10;;;1.17;;
14789;SDS011;7486;51.010;10.366;2023-03-31T06:54:48;3.43;;;1.63;;
14789;SDS011;7486;51.010;10.366;2023-03-31T06:57:34;4.33;;;1.20;;
14789;SDS011;7486;51.010;10.366;2023-03-31T07:00:19;5.90;;;1.42;;
14789;SDS011;7486;51.010;10.366;2023-03-31T07:03:07;3.20;;;1.50;;
14789;SDS011;7486;51.010;10.366;2023-03-31T07:05:53;3.63;;;1.40;;
14789;SDS011;7486;51.010;10.366;2023-03-31T07:08:39;4.18;;;1.25;;
14789;SDS011;7486;51.010;10.366;2023-03-31T07:11:24;4.38;;;1.30;;
14789;SDS011;7486;51.010;10.366;2023-03-31T07:14:09;3.85;;;1.50;;
14789;SDS011;7486;51.010;10.366;2023-03-31T07:16:55;4.22;;;1.55;;
14789;SDS011;7486;51.010;10.366;2023-03-31T07:19:40;3.80;;;1.20;;
14789;SDS011;7486;51.010;10.366;2023-03-31T07:22:25;4.93;;;1.47;;
14789;SDS011;7486;51.010;10.366;2023-03-31T07:25:11;2.10;;;1.10;;
14789;SDS011;7486;51.010;10.366;2023-03-31T07:27:59;1.97;;;1.10;;
14789;SDS011;7486;51.010;10.366;2023-03-31T07:30:45;2.63;;;1.30;;
14789;SDS011;7486;51.010;10.366;2023-03-31T07:33:30;4.60;;;1.20;;
14789;SDS011;7486;51.010;10.366;2023-03-31T07:36:16;5.07;;;1.60;;
14789;SDS011;7486;51.010;10.366;2023-03-31T07:39:02;3.63;;;1.40;;
14789;SDS011;7486;51.010;10.366;2023-03-31T07:41:49;2.00;;;1.30;;
14789;SDS011;7486;51.010;10.366;2023-03-31T07:44:35;3.67;;;1.20;;
14789;SDS011;7486;51.010;10.366;2023-03-31T07:47:21;4.07;;;1.30;;
14789;SDS011;7486;51.010;10.366;2023-03-31T07:50:06;3.17;;;1.48;;
14789;SDS011;7486;51.010;10.366;2023-03-31T07:52:52;3.03;;;1.50;;
14789;SDS011;7486;51.010;10.366;2023-03-31T07:55:38;2.53;;;1.40;;
14789;SDS011;7486;51.010;10.366;2023-03-31T07:58:23;4.93;;;1.40;;
14789;SDS011;7486;51.010;10.366;2023-03-31T08:01:08;3.20;;;1.50;;
14789;SDS011;7486;51.010;10.366;2023-03-31T08:03:54;3.97;;;1.73;;
14789;SDS011;7486;51.010;10.366;2023-03-31T08:06:39;3.03;;;1.50;;
14789;SDS011;7486;51.010;10.366;2023-03-31T08:09:25;2.93;;;1.60;;
14789;SDS011;7486;51.010;10.366;2023-03-31T08:12:11;3.15;;;1.40;;
14789;SDS011;7486;51.010;10.366;2023-03-31T08:14:57;2.67;;;1.20;;
14789;SDS011;7486;51.010;10.366;2023-03-31T08:17:43;2.40;;;1.33;;
14789;SDS011;7486;51.010;10.366;2023-03-31T08:20:28;2.67;;;1.50;;
14789;SDS011;7486;51.010;10.366;2023-03-31T08:23:14;4.22;;;1.50;;
14789;SDS011;7486;51.010;10.366;2023-03-31T08:26:07;4.57;;;1.37;;
14789;SDS011;7486;51.010;10.366;2023-03-31T08:29:00;2.90;;;1.33;;
14789;SDS011;7486;51.010;10.366;2023-03-31T08:31:45;3.03;;;1.35;;
14789;SDS011;7486;51.010;10.366;2023-03-31T08:34:31;3.53;;;1.60;;
14789;SDS011;7486;51.010;10.366;2023-03-31T08:37:17;4.33;;;1.93;;
14789;SDS011;7486;51.010;10.366;2023-03-31T08:40:03;4.83;;;2.20;;
14789;SDS011;7486;51.010;10.366;2023-03-31T08:42:50;3.63;;;1.50;;
14789;SDS011;7486;51.010;10.366;2023-03-31T08:45:44;5.57;;;1.70;;
14789;SDS011;7486;51.010;10.366;2023-03-31T08:48:33;4.57;;;1.57;;
14789;SDS011;7486;51.010;10.366;2023-03-31T08:51:24;4.90;;;1.50;;
14789;SDS011;7486;51.010;10.366;2023-03-31T08:54:56;8.17;;;2.00;;
14789;SDS011;7486;51.010;10.366;2023-03-31T08:57:31;3.97;;;2.03;;
14789;SDS011;7486;51.010;10.366;2023-03-31T09:00:18;4.13;;;1.60;;
14789;SDS011;7486;51.010;10.366;2023-03-31T09:03:13;3.58;;;1.70;;
14789;SDS011;7486;51.010;10.366;2023-03-31T09:06:07;4.43;;;1.95;;
14789;SDS011;7486;51.010;10.366;2023-03-31T09:09:24;3.92;;;2.13;;
14789;SDS011;7486;51.010;10.366;2023-03-31T09:18:31;5.45;;;2.08;;
14789;SDS011;7486;51.010;10.366;2023-03-31T09:24:31;2.55;;;1.80;;
14789;SDS011;7486;51.010;10.366;2023-03-31T09:27:20;2.90;;;1.90;;
14789;SDS011;7486;51.010;10.366;2023-03-31T09:33:17;3.90;;;1.80;;
14789;SDS011;7486;51.010;10.366;2023-03-31T09:36:07;3.20;;;2.20;;
14789;SDS011;7486;51.010;10.366;2023-03-31T09:39:02;2.67;;;2.08;;
14789;SDS011;7486;51.010;10.366;2023-03-31T09:41:49;2.90;;;1.75;;
14789;SDS011;7486;51.010;10.366;2023-03-31T09:44:40;2.58;;;1.50;;
14789;SDS011;7486;51.010;10.366;2023-03-31T09:47:32;1.58;;;1.17;;
14789;SDS011;7486;51.010;10.366;2023-03-31T09:50:22;1.35;;;1.10;;
14789;SDS011;7486;51.010;10.366;2023-03-31T09:56:31;1.40;;;1.17;;
14789;SDS011;7486;51.010;10.366;2023-03-31T09:59:21;2.13;;;1.35;;
14789;SDS011;7486;51.010;10.366;2023-03-31T10:02:33;1.70;;;1.20;;
14789;SDS011;7486;51.010;10.366;2023-03-31T10:06:07;1.73;;;1.17;;
14789;SDS011;7486;51.010;10.366;2023-03-31T10:08:37;3.53;;;1.42;;
14789;SDS011;7486;51.010;10.366;2023-03-31T10:11:25;1.70;;;1.20;;
14789;SDS011;7486;51.010;10.366;2023-03-31T10:14:12;1.52;;;1.10;;
14789;SDS011;7486;51.010;10.366;2023-03-31T10:17:01;1.85;;;1.20;;
14789;SDS011;7486;51.010;10.366;2023-03-31T10:19:59;1.45;;;1.20;;
14789;SDS011;7486;51.010;10.366;2023-03-31T10:22:50;1.80;;;1.00;;
14789;SDS011;7486;51.010;10.366;2023-03-31T10:25:35;2.03;;;1.10;;
14789;SDS011;7486;51.010;10.366;2023-03-31T10:28:21;2.45;;;1.35;;
14789;SDS011;7486;51.010;10.366;2023-03-31T10:31:07;1.58;;;1.20;;
14789;SDS011;7486;51.010;10.366;2023-03-31T10:33:52;1.25;;;1.10;;
14789;SDS011;7486;51.010;10.366;2023-03-31T10:36:41;1.10;;;0.98;;
14789;SDS011;7486;51.010;10.366;2023-03-31T10:39:31;1.08;;;0.90;;
14789;SDS011;7486;51.010;10.366;2023-03-31T10:42:18;1.65;;;1.00;;
14789;SDS011;7486;51.010;10.366;2023-03-31T10:45:11;1.00;;;0.80;;
14789;SDS011;7486;51.010;10.366;2023-03-31T10:48:34;1.48;;;0.93;;
14789;SDS011;7486;51.010;10.366;2023-03-31T10:51:25;1.30;;;0.90;;
14789;SDS011;7486;51.010;10.366;2023-03-31T10:54:11;1.13;;;0.90;;
14789;SDS011;7486;51.010;10.366;2023-03-31T10:56:57;1.60;;;0.70;;
14789;SDS011;7486;51.010;10.366;2023-03-31T11:05:53;1.13;;;0.80;;
14789;SDS011;7486;51.010;10.366;2023-03-31T11:11:54;1.77;;;0.55;;
14789;SDS011;7486;51.010;10.366;2023-03-31T11:27:06;1.40;;;0.77;;
14789;SDS011;7486;51.010;10.366;2023-03-31T11:30:08;2.10;;;0.90;;
14789;SDS011;7486;51.010;10.366;2023-03-31T11:33:21;1.63;;;0.70;;
14789;SDS011;7486;51.010;10.366;2023-03-31T11:42:24;1.50;;;0.95;;
14789;SDS011;7486;51.010;10.366;2023-03-31T11:45:17;2.00;;;1.10;;
14789;SDS011;7486;51.010;10.366;2023-03-31T11:48:15;2.47;;;0.85;;
14789;SDS011;7486;51.010;10.366;2023-03-31T11:57:35;3.20;;;1.30;;
14789;SDS011;7486;51.010;10.366;2023-03-31T12:00:29;1.30;;;0.90;;
14789;SDS011;7486;51.010;10.366;2023-03-31T12:06:21;2.78;;;1.40;;
14789;SDS011;7486;51.010;10.366;2023-03-31T12:09:21;2.42;;;1.20;;
14789;SDS011;7486;51.010;10.366;2023-03-31T12:12:12;3.55;;;1.50;;
14789;SDS011;7486;51.010;10.366;2023-03-31T12:15:12;4.60;;;1.67;;
14789;SDS011;7486;51.010;10.366;2023-03-31T12:18:13;3.50;;;1.40;;
14789;SDS011;7486;51.010;10.366;2023-03-31T12:21:02;1.25;;;0.80;;
14789;SDS011;7486;51.010;10.366;2023-03-31T12:23:49;2.75;;;1.10;;
14789;SDS011;7486;51.010;10.366;2023-03-31T12:29:37;2.10;;;1.00;;
14789;SDS011;7486;51.010;10.366;2023-03-31T12:32:29;1.35;;;0.77;;
14789;SDS011;7486;51.010;10.366;2023-03-31T12:35:23;3.28;;;1.23;;
14789;SDS011;7486;51.010;10.366;2023-03-31T12:41:15;3.08;;;1.13;;
14789;SDS011;7486;51.010;10.366;2023-03-31T12:44:44;1.50;;;0.82;;
14789;SDS011;7486;51.010;10.366;2023-03-31T12:56:19;0.52;;;0.50;;
14789;SDS011;7486;51.010;10.366;2023-03-31T12:59:17;1.20;;;0.73;;
14789;SDS011;7486;51.010;10.366;2023-03-31T13:04:54;0.75;;;0.50;;
14789;SDS011;7486;51.010;10.366;2023-03-31T13:07:41;0.82;;;0.40;;
14789;SDS011;7486;51.010;10.366;2023-03-31T13:10:29;0.65;;;0.40;;
14789;SDS011;7486;51.010;10.366;2023-03-31T13:13:17;0.77;;;0.50;;
14789;SDS011;7486;51.010;10.366;2023-03-31T13:16:02;0.63;;;0.43;;
14789;SDS011;7486;51.010;10.366;2023-03-31T13:18:51;1.70;;;0.60;;
14789;SDS011;7486;51.010;10.366;2023-03-31T13:28:40;0.52;;;0.52;;
14789;SDS011;7486;51.010;10.366;2023-03-31T13:31:28;2.22;;;0.60;;
14789;SDS011;7486;51.010;10.366;2023-03-31T13:34:49;2.45;;;0.60;;
14789;SDS011;7486;51.010;10.366;2023-03-31T14:05:11;0.77;;;0.63;;
14789;SDS011;7486;51.010;10.366;2023-03-31T14:08:13;1.35;;;0.68;;
14789;SDS011;7486;51.010;10.366;2023-03-31T14:11:24;1.30;;;0.60;;
14789;SDS011;7486;51.010;10.366;2023-03-31T14:14:12;1.45;;;0.77;;
14789;SDS011;7486;51.010;10.366;2023-03-31T14:17:00;2.20;;;0.82;;
14789;SDS011;7486;51.010;10.366;2023-03-31T14:26:35;1.35;;;0.88;;
14789;SDS011;7486;51.010;10.366;2023-03-31T14:32:31;2.28;;;0.95;;
14789;SDS011;7486;51.010;10.366;2023-03-31T14:38:54;1.60;;;0.80;;
14789;SDS011;7486;51.010;10.366;2023-03-31T14:41:50;2.65;;;0.70;;
14789;SDS011;7486;51.010;10.366;2023-03-31T14:44:41;2.45;;;0.95;;
14789;SDS011;7486;51.010;10.366;2023-03-31T14:47:28;1.70;;;0.90;;
14789;SDS011;7486;51.010;10.366;2023-03-31T14:50:17;1.27;;;0.75;;
14789;SDS011;7486;51.010;10.366;2023-03-31T14:53:02;3.35;;;1.05;;
14789;SDS011;7486;51.010;10.366;2023-03-31T14:56:02;3.13;;;1.15;;
14789;SDS011;7486;51.010;10.366;2023-03-31T14:58:51;2.33;;;0.73;;
14789;SDS011;7486;51.010;10.366;2023-03-31T15:01:38;2.45;;;1.00;;
14789;SDS011;7486;51.010;10.366;2023-03-31T15:04:24;2.13;;;0.88;;
14789;SDS011;7486;51.010;10.366;2023-03-31T15:07:26;1.90;;;0.90;;
14789;SDS011;7486;51.010;10.366;2023-03-31T15:10:11;5.28;;;1.30;;
14789;SDS011;7486;51.010;10.366;2023-03-31T15:13:09;1.83;;;1.33;;
14789;SDS011;7486;51.010;10.366;2023-03-31T15:15:59;7.35;;;3.60;;
14789;SDS011;7486;51.010;10.366;2023-03-31T15:19:06;8.15;;;3.28;;
14789;SDS011;7486;51.010;10.366;2023-03-31T15:24:43;4.25;;;1.50;;
14789;SDS011;7486;51.010;10.366;2023-03-31T15:30:23;3.60;;;1.73;;
14789;SDS011;7486;51.010;10.366;2023-03-31T15:33:18;2.80;;;1.38;;
14789;SDS011;7486;51.010;10.366;2023-03-31T15:36:07;1.80;;;1.30;;
14789;SDS011;7486;51.010;10.366;2023-03-31T15:38:57;2.17;;;1.23;;
14789;SDS011;7486;51.010;10.366;2023-03-31T15:41:43;2.17;;;1.10;;
14789;SDS011;7486;51.010;10.366;2023-03-31T15:44:42;3.60;;;1.33;;
14789;SDS011;7486;51.010;10.366;2023-03-31T15:47:29;4.30;;;1.80;;
14789;SDS011;7486;51.010;10.366;2023-03-31T15:50:19;3.17;;;1.38;;
14789;SDS011;7486;51.010;10.366;2023-03-31T15:53:18;1.42;;;0.80;;
14789;SDS011;7486;51.010;10.366;2023-03-31T15:59:23;3.03;;;1.10;;
14789;SDS011;7486;51.010;10.366;2023-03-31T16:02:37;1.00;;;0.73;;
14789;SDS011;7486;51.010;10.366;2023-03-31T16:08:42;2.50;;;0.95;;
14789;SDS011;7486;51.010;10.366;2023-03-31T16:14:42;4.40;;;1.50;;
14789;SDS011;7486;51.010;10.366;2023-03-31T16:17:34;3.47;;;1.20;;
14789;SDS011;7486;51.010;10.366;2023-03-31T16:20:24;3.70;;;1.40;;
14789;SDS011;7486;51.010;10.366;2023-03-31T16:23:16;3.25;;;1.30;;
14789;SDS011;7486;51.010;10.366;2023-03-31T16:26:04;3.58;;;1.58;;
14789;SDS011;7486;51.010;10.366;2023-03-31T16:28:51;4.15;;;1.73;;
14789;SDS011;7486;51.010;10.366;2023-03-31T16:31:38;2.08;;;1.35;;
14789;SDS011;7486;51.010;10.366;2023-03-31T16:34:24;1.63;;;1.20;;
14789;SDS011;7486;51.010;10.366;2023-03-31T16:37:15;2.88;;;1.80;;
14789;SDS011;7486;51.010;10.366;2023-03-31T16:40:01;2.75;;;1.85;;
14789;SDS011;7486;51.010;10.366;2023-03-31T16:42:46;8.65;;;6.85;;
14789;SDS011;7486;51.010;10.366;2023-03-31T16:45:31;4.32;;;2.75;;
14789;SDS011;7486;51.010;10.366;2023-03-31T16:48:18;2.97;;;1.88;;
14789;SDS011;7486;51.010;10.366;2023-03-31T16:51:04;2.40;;;1.58;;
14789;SDS011;7486;51.010;10.366;2023-03-31T16:53:52;3.78;;;1.60;;
14789;SDS011;7486;51.010;10.366;2023-03-31T16:56:37;1.67;;;1.10;;
14789;SDS011;7486;51.010;10.366;2023-03-31T16:59:23;2.47;;;1.20;;
14789;SDS011;7486;51.010;10.366;2023-03-31T17:02:09;1.85;;;0.88;;
14789;SDS011;7486;51.010;10.366;2023-03-31T17:04:55;1.73;;;0.90;;
14789;SDS011;7486;51.010;10.366;2023-03-31T17:07:50;1.38;;;0.88;;
14789;SDS011;7486;51.010;10.366;2023-03-31T17:10:36;2.13;;;0.90;;
14789;SDS011;7486;51.010;10.366;2023-03-31T17:13:23;3.28;;;1.00;;
14789;SDS011;7486;51.010;10.366;2023-03-31T17:16:09;2.13;;;0.85;;
14789;SDS011;7486;51.010;10.366;2023-03-31T17:19:02;2.22;;;0.95;;
14789;SDS011;7486;51.010;10.366;2023-03-31T17:21:48;1.92;;;1.00;;
14789;SDS011;7486;51.010;10.366;2023-03-31T17:24:34;1.42;;;0.70;;
14789;SDS011;7486;51.010;10.366;2023-03-31T17:27:20;2.33;;;0.82;;
14789;SDS011;7486;51.010;10.366;2023-03-31T17:30:05;2.15;;;0.80;;
14789;SDS011;7486;51.010;10.366;2023-03-31T17:32:51;1.13;;;0.70;;
14789;SDS011;7486;51.010;10.366;2023-03-31T17:35:37;1.90;;;0.82;;
14789;SDS011;7486;51.010;10.366;2023-03-31T17:38:22;1.95;;;0.80;;
14789;SDS011;7486;51.010;10.366;2023-03-31T17:41:09;2.15;;;1.02;;
14789;SDS011;7486;51.010;10.366;2023-03-31T17:43:56;0.80;;;0.80;;
14789;SDS011;7486;51.010;10.366;2023-03-31T17:46:42;2.50;;;1.00;;
14789;SDS011;7486;51.010;10.366;2023-03-31T17:49:27;2.57;;;1.47;;
14789;SDS011;7486;51.010;10.366;2023-03-31T17:52:12;3.65;;;1.77;;
14789;SDS011;7486;51.010;10.366;2023-03-31T17:54:58;3.22;;;2.20;;
14789;SDS011;7486;51.010;10.366;2023-03-31T17:57:43;5.53;;;2.00;;
14789;SDS011;7486;51.010;10.366;2023-03-31T18:00:29;3.27;;;1.87;;
14789;SDS011;7486;51.010;10.366;2023-03-31T18:03:14;5.07;;;1.93;;
14789;SDS011;7486;51.010;10.366;2023-03-31T18:06:06;3.42;;;2.03;;
14789;SDS011;7486;51.010;10.366;2023-03-31T18:08:54;2.67;;;1.50;;
14789;SDS011;7486;51.010;10.366;2023-03-31T18:11:40;4.07;;;1.73;;
14789;SDS011;7486;51.010;10.366;2023-03-31T18:14:25;3.20;;;1.30;;
14789;SDS011;7486;51.010;10.366;2023-03-31T18:17:11;2.78;;;1.20;;
14789;SDS011;7486;51.010;10.366;2023-03-31T18:19:57;2.38;;;1.50;;
14789;SDS011;7486;51.010;10.366;2023-03-31T18:22:42;1.73;;;0.90;;
14789;SDS011;7486;51.010;10.366;2023-03-31T18:25:28;2.27;;;1.10;;
14789;SDS011;7486;51.010;10.366;2023-03-31T18:28:14;3.70;;;1.27;;
14789;SDS011;7486;51.010;10.366;2023-03-31T18:31:01;2.20;;;1.20;;
14789;SDS011;7486;51.010;10.366;2023-03-31T18:33:54;1.85;;;1.00;;
14789;SDS011;7486;51.010;10.366;2023-03-31T18:36:39;2.00;;;0.97;;
14789;SDS011;7486;51.010;10.366;2023-03-31T18:39:24;3.43;;;1.20;;
14789;SDS011;7486;51.010;10.366;2023-03-31T18:42:09;2.37;;;1.00;;
14789;SDS011;7486;51.010;10.366;2023-03-31T18:44:55;2.87;;;0.87;;
14789;SDS011;7486;51.010;10.366;2023-03-31T18:47:40;3.40;;;1.20;;
14789;SDS011;7486;51.010;10.366;2023-03-31T18:50:26;4.70;;;1.50;;
14789;SDS011;7486;51.010;10.366;2023-03-31T18:53:12;2.67;;;1.50;;
14789;SDS011;7486;51.010;10.366;2023-03-31T18:55:57;3.47;;;1.30;;
14789;SDS011;7486;51.010;10.366;2023-03-31T18:58:43;3.40;;;1.50;;
14789;SDS011;7486;51.010;10.366;2023-03-31T19:01:30;2.23;;;1.43;;
14789;SDS011;7486;51.010;10.366;2023-03-31T19:04:15;2.33;;;1.10;;
14789;SDS011;7486;51.010;10.366;2023-03-31T19:07:01;2.57;;;1.03;;
14789;SDS011;7486;51.010;10.366;2023-03-31T19:09:46;2.77;;;1.17;;
14789;SDS011;7486;51.010;10.366;2023-03-31T19:12:32;4.43;;;1.30;;
14789;SDS011;7486;51.010;10.366;2023-03-31T19:15:17;1.90;;;0.90;;
14789;SDS011;7486;51.010;10.366;2023-03-31T19:18:03;3.10;;;1.20;;
14789;SDS011;7486;51.010;10.366;2023-03-31T19:20:49;3.00;;;1.20;;
14789;SDS011;7486;51.010;10.366;2023-03-31T19:23:34;3.70;;;1.20;;
14789;SDS011;7486;51.010;10.366;2023-03-31T19:26:21;3.20;;;1.10;;
14789;SDS011;7486;51.010;10.366;2023-03-31T19:29:06;4.30;;;1.30;;
14789;SDS011;7486;51.010;10.366;2023-03-31T19:31:52;4.37;;;1.10;;
14789;SDS011;7486;51.010;10.366;2023-03-31T19:34:40;2.77;;;1.07;;
14789;SDS011;7486;51.010;10.366;2023-03-31T19:37:26;2.43;;;1.20;;
14789;SDS011;7486;51.010;10.366;2023-03-31T19:40:11;3.10;;;1.20;;
14789;SDS011;7486;51.010;10.366;2023-03-31T19:42:57;2.20;;;0.97;;
14789;SDS011;7486;51.010;10.366;2023-03-31T19:45:44;3.23;;;0.90;;
14789;SDS011;7486;51.010;10.366;2023-03-31T19:48:30;2.30;;;1.00;;
14789;SDS011;7486;51.010;10.366;2023-03-31T19:51:15;3.23;;;1.10;;
14789;SDS011;7486;51.010;10.366;2023-03-31T19:54:01;3.83;;;1.20;;
14789;SDS011;7486;51.010;10.366;2023-03-31T19:56:46;3.90;;;1.23;;